sensor_id;sensor_type;location;lat;lon;timestamp;temperature;humidity
44121;DHT22;29783;52.504;13.478;2023-05-07T00:01:43;9.30;89.50
44121;DHT22;29783;52.504;13.478;2023-05-07T00:04:10;9.30;89.50
44121;DHT22;29783;52.504;13.478;2023-05-07T00:06:36;9.30;89.50
44121;DHT22;29783;52.504;13.478;2023-05-07T00:09:03;9.30;89.30
44121;DHT22;29783;52.504;13.478;2023-05-07T00:11:30;9.30;89.10
44121;DHT22;29783;52.504;13.478;2023-05-07T00:13:56;9.30;88.90
44121;DHT22;29783;52.504;13.478;2023-05-07T00:16:23;9.20;89.00
44121;DHT22;29783;52.504;13.478;2023-05-07T00:18:49;9.20;89.20
44121;DHT22;29783;52.504;13.478;2023-05-07T00:21:14;9.30;89.00
44121;DHT22;29783;52.504;13.478;2023-05-07T00:23:40;9.20;88.80
44121;DHT22;29783;52.504;13.478;2023-05-07T00:26:06;9.20;89.00
44121;DHT22;29783;52.504;13.478;2023-05-07T00:28:31;9.20;88.90
44121;DHT22;29783;52.504;13.478;2023-05-07T00:30:57;9.20;88.70
44121;DHT22;29783;52.504;13.478;2023-05-07T00:33:23;9.10;88.70
44121;DHT22;29783;52.504;13.478;2023-05-07T00:35:48;9.10;89.10
44121;DHT22;29783;52.504;13.478;2023-05-07T00:38:14;9.00;89.40
44121;DHT22;29783;52.504;13.478;2023-05-07T00:40:40;8.80;89.50
44121;DHT22;29783;52.504;13.478;2023-05-07T00:43:07;8.70;89.90
44121;DHT22;29783;52.504;13.478;2023-05-07T00:45:34;8.60;90.30
44121;DHT22;29783;52.504;13.478;2023-05-07T00:48:02;8.50;90.70
44121;DHT22;29783;52.504;13.478;2023-05-07T00:50:31;8.60;91.10
44121;DHT22;29783;52.504;13.478;2023-05-07T00:52:58;8.60;90.90
44121;DHT22;29783;52.504;13.478;2023-05-07T00:55:26;8.70;90.70
44121;DHT22;29783;52.504;13.478;2023-05-07T00:57:51;8.70;90.60
44121;DHT22;29783;52.504;13.478;2023-05-07T01:00:19;8.70;90.50
44121;DHT22;29783;52.504;13.478;2023-05-07T01:02:45;8.80;90.30
44121;DHT22;29783;52.504;13.478;2023-05-07T01:05:13;8.80;90.20
44121;DHT22;29783;52.504;13.478;2023-05-07T01:07:41;8.80;90.00
44121;DHT22;29783;52.504;13.478;2023-05-07T01:10:08;8.90;89.90
44121;DHT22;29783;52.504;13.478;2023-05-07T01:12:36;8.90;89.90
44121;DHT22;29783;52.504;13.478;2023-05-07T01:15:03;9.00;89.70
44121;DHT22;29783;52.504;13.478;2023-05-07T01:17:36;9.00;89.40
44121;DHT22;29783;52.504;13.478;2023-05-07T01:20:01;9.00;89.20
44121;DHT22;29783;52.504;13.478;2023-05-07T01:22:38;9.00;89.40
44121;DHT22;29783;52.504;13.478;2023-05-07T01:25:04;9.00;89.30
44121;DHT22;29783;52.504;13.478;2023-05-07T01:27:30;9.00;89.30
44121;DHT22;29783;52.504;13.478;2023-05-07T01:29:56;9.00;89.00
44121;DHT22;29783;52.504;13.478;2023-05-07T01:32:33;9.00;89.00
44121;DHT22;29783;52.504;13.478;2023-05-07T01:35:01;9.10;89.10
44121;DHT22;29783;52.504;13.478;2023-05-07T01:37:27;9.00;88.70
44121;DHT22;29783;52.504;13.478;2023-05-07T01:39:55;9.10;88.90
44121;DHT22;29783;52.504;13.478;2023-05-07T01:42:21;9.00;88.60
44121;DHT22;29783;52.504;13.478;2023-05-07T01:44:47;9.00;88.80
44121;DHT22;29783;52.504;13.478;2023-05-07T01:47:14;9.00;88.50
44121;DHT22;29783;52.504;13.478;2023-05-07T01:49:40;9.00;88.60
44121;DHT22;29783;52.504;13.478;2023-05-07T01:52:07;9.10;88.40
44121;DHT22;29783;52.504;13.478;2023-05-07T01:54:33;9.10;88.10
44121;DHT22;29783;52.504;13.478;2023-05-07T01:56:59;9.10;88.30
44121;DHT22;29783;52.504;13.478;2023-05-07T01:59:25;9.10;88.50
44121;DHT22;29783;52.504;13.478;2023-05-07T02:01:52;9.10;88.50
44121;DHT22;29783;52.504;13.478;2023-05-07T02:04:19;9.10;88.50
44121;DHT22;29783;52.504;13.478;2023-05-07T02:06:44;9.00;88.50
44121;DHT22;29783;52.504;13.478;2023-05-07T02:09:10;9.00;88.50
44121;DHT22;29783;52.504;13.478;2023-05-07T02:11:36;9.00;88.50
44121;DHT22;29783;52.504;13.478;2023-05-07T02:14:01;9.10;88.50
44121;DHT22;29783;52.504;13.478;2023-05-07T02:16:27;9.10;88.20
44121;DHT22;29783;52.504;13.478;2023-05-07T02:18:53;9.00;88.40
44121;DHT22;29783;52.504;13.478;2023-05-07T02:21:18;9.00;88.40
44121;DHT22;29783;52.504;13.478;2023-05-07T02:23:44;9.10;88.40
44121;DHT22;29783;52.504;13.478;2023-05-07T02:26:10;9.10;88.10
44121;DHT22;29783;52.504;13.478;2023-05-07T02:28:36;9.10;88.10
44121;DHT22;29783;52.504;13.478;2023-05-07T02:31:05;9.10;88.10
44121;DHT22;29783;52.504;13.478;2023-05-07T02:33:31;9.10;88.20
44121;DHT22;29783;52.504;13.478;2023-05-07T02:36:04;9.10;88.20
44121;DHT22;29783;52.504;13.478;2023-05-07T02:38:30;9.10;87.90
44121;DHT22;29783;52.504;13.478;2023-05-07T02:40:56;9.10;88.00
44121;DHT22;29783;52.504;13.478;2023-05-07T02:43:21;9.10;87.70
44121;DHT22;29783;52.504;13.478;2023-05-07T02:45:47;9.20;87.80
44121;DHT22;29783;52.504;13.478;2023-05-07T02:48:12;9.10;87.70
44121;DHT22;29783;52.504;13.478;2023-05-07T02:50:38;9.10;87.90
44121;DHT22;29783;52.504;13.478;2023-05-07T02:53:04;9.10;87.70
44121;DHT22;29783;52.504;13.478;2023-05-07T02:55:30;9.00;87.60
44121;DHT22;29783;52.504;13.478;2023-05-07T02:57:55;9.10;87.60
44121;DHT22;29783;52.504;13.478;2023-05-07T03:00:22;9.10;87.60
44121;DHT22;29783;52.504;13.478;2023-05-07T03:02:48;9.10;87.70
44121;DHT22;29783;52.504;13.478;2023-05-07T03:05:13;9.00;87.20
44121;DHT22;29783;52.504;13.478;2023-05-07T03:07:40;9.00;87.30
44121;DHT22;29783;52.504;13.478;2023-05-07T03:10:09;9.00;87.40
44121;DHT22;29783;52.504;13.478;2023-05-07T03:12:35;9.00;87.20
44121;DHT22;29783;52.504;13.478;2023-05-07T03:15:01;9.10;87.30
44121;DHT22;29783;52.504;13.478;2023-05-07T03:17:26;9.10;87.10
44121;DHT22;29783;52.504;13.478;2023-05-07T03:19:52;9.10;87.20
44121;DHT22;29783;52.504;13.478;2023-05-07T03:22:19;9.10;87.00
44121;DHT22;29783;52.504;13.478;2023-05-07T03:24:45;9.10;87.00
44121;DHT22;29783;52.504;13.478;2023-05-07T03:27:11;9.10;87.10
44121;DHT22;29783;52.504;13.478;2023-05-07T03:29:37;9.10;87.10
44121;DHT22;29783;52.504;13.478;2023-05-07T03:32:03;9.00;87.30
44121;DHT22;29783;52.504;13.478;2023-05-07T03:34:28;9.00;87.40
44121;DHT22;29783;52.504;13.478;2023-05-07T03:36:54;9.00;87.50
44121;DHT22;29783;52.504;13.478;2023-05-07T03:39:19;9.00;87.50
44121;DHT22;29783;52.504;13.478;2023-05-07T03:41:45;8.90;87.90
44121;DHT22;29783;52.504;13.478;2023-05-07T03:44:11;9.00;88.00
44121;DHT22;29783;52.504;13.478;2023-05-07T03:49:36;9.00;87.80
44121;DHT22;29783;52.504;13.478;2023-05-07T03:52:02;9.00;87.80
44121;DHT22;29783;52.504;13.478;2023-05-07T03:54:28;8.90;87.90
44121;DHT22;29783;52.504;13.478;2023-05-07T03:56:53;9.00;88.00
44121;DHT22;29783;52.504;13.478;2023-05-07T03:59:19;8.90;88.00
44121;DHT22;29783;52.504;13.478;2023-05-07T04:01:44;9.00;88.10
44121;DHT22;29783;52.504;13.478;2023-05-07T04:04:10;8.90;87.50
44121;DHT22;29783;52.504;13.478;2023-05-07T04:06:37;8.90;87.40
44121;DHT22;29783;52.504;13.478;2023-05-07T04:09:04;9.00;87.40
44121;DHT22;29783;52.504;13.478;2023-05-07T04:11:31;9.00;87.30
44121;DHT22;29783;52.504;13.478;2023-05-07T04:13:57;9.00;87.60
44121;DHT22;29783;52.504;13.478;2023-05-07T04:16:23;9.00;87.50
44121;DHT22;29783;52.504;13.478;2023-05-07T04:18:48;9.00;87.30
44121;DHT22;29783;52.504;13.478;2023-05-07T04:21:18;9.00;87.30
44121;DHT22;29783;52.504;13.478;2023-05-07T04:23:46;9.00;87.10
44121;DHT22;29783;52.504;13.478;2023-05-07T04:26:12;9.10;86.90
44121;DHT22;29783;52.504;13.478;2023-05-07T04:28:42;9.10;86.80
44121;DHT22;29783;52.504;13.478;2023-05-07T04:31:09;9.20;86.80
44121;DHT22;29783;52.504;13.478;2023-05-07T04:33:36;9.30;86.40
44121;DHT22;29783;52.504;13.478;2023-05-07T04:36:03;9.30;86.20
44121;DHT22;29783;52.504;13.478;2023-05-07T04:38:32;9.30;86.10
44121;DHT22;29783;52.504;13.478;2023-05-07T04:41:04;9.30;86.10
44121;DHT22;29783;52.504;13.478;2023-05-07T04:43:30;9.40;85.80
44121;DHT22;29783;52.504;13.478;2023-05-07T04:45:57;9.50;85.20
44121;DHT22;29783;52.504;13.478;2023-05-07T04:48:23;9.50;85.10
44121;DHT22;29783;52.504;13.478;2023-05-07T04:50:49;9.60;84.60
44121;DHT22;29783;52.504;13.478;2023-05-07T04:53:17;9.50;84.70
44121;DHT22;29783;52.504;13.478;2023-05-07T04:55:43;9.70;84.30
44121;DHT22;29783;52.504;13.478;2023-05-07T04:58:11;9.60;84.10
44121;DHT22;29783;52.504;13.478;2023-05-07T05:00:38;9.70;83.80
44121;DHT22;29783;52.504;13.478;2023-05-07T05:03:05;9.80;83.40
44121;DHT22;29783;52.504;13.478;2023-05-07T05:05:31;9.80;82.40
44121;DHT22;29783;52.504;13.478;2023-05-07T05:07:56;9.90;81.70
44121;DHT22;29783;52.504;13.478;2023-05-07T05:10:22;9.90;82.20
44121;DHT22;29783;52.504;13.478;2023-05-07T05:12:48;9.90;82.20
44121;DHT22;29783;52.504;13.478;2023-05-07T05:15:15;10.00;81.80
44121;DHT22;29783;52.504;13.478;2023-05-07T05:17:40;10.10;81.00
44121;DHT22;29783;52.504;13.478;2023-05-07T05:20:06;10.00;81.00
44121;DHT22;29783;52.504;13.478;2023-05-07T05:22:32;10.10;81.10
44121;DHT22;29783;52.504;13.478;2023-05-07T05:24:58;10.10;81.70
44121;DHT22;29783;52.504;13.478;2023-05-07T05:27:24;10.20;80.80
44121;DHT22;29783;52.504;13.478;2023-05-07T05:29:49;10.20;80.40
44121;DHT22;29783;52.504;13.478;2023-05-07T05:32:15;10.20;80.70
44121;DHT22;29783;52.504;13.478;2023-05-07T05:34:41;10.20;80.50
44121;DHT22;29783;52.504;13.478;2023-05-07T05:37:06;10.20;80.40
44121;DHT22;29783;52.504;13.478;2023-05-07T05:39:32;10.30;80.30
44121;DHT22;29783;52.504;13.478;2023-05-07T05:41:58;10.30;80.20
44121;DHT22;29783;52.504;13.478;2023-05-07T05:50:21;10.40;79.70
44121;DHT22;29783;52.504;13.478;2023-05-07T05:52:46;10.40;79.50
44121;DHT22;29783;52.504;13.478;2023-05-07T05:55:12;10.30;79.80
44121;DHT22;29783;52.504;13.478;2023-05-07T05:57:38;10.50;79.80
44121;DHT22;29783;52.504;13.478;2023-05-07T06:00:04;10.60;79.40
44121;DHT22;29783;52.504;13.478;2023-05-07T06:02:30;10.70;78.80
44121;DHT22;29783;52.504;13.478;2023-05-07T06:04:56;10.70;78.30
44121;DHT22;29783;52.504;13.478;2023-05-07T06:07:21;10.60;78.80
44121;DHT22;29783;52.504;13.478;2023-05-07T06:09:47;10.70;78.60
44121;DHT22;29783;52.504;13.478;2023-05-07T06:12:12;10.80;78.80
44121;DHT22;29783;52.504;13.478;2023-05-07T06:14:38;10.90;78.20
44121;DHT22;29783;52.504;13.478;2023-05-07T06:17:03;11.00;77.80
44121;DHT22;29783;52.504;13.478;2023-05-07T06:19:29;11.20;77.90
44121;DHT22;29783;52.504;13.478;2023-05-07T06:21:54;11.20;76.80
44121;DHT22;29783;52.504;13.478;2023-05-07T06:24:22;11.30;76.30
44121;DHT22;29783;52.504;13.478;2023-05-07T06:26:47;11.30;76.30
44121;DHT22;29783;52.504;13.478;2023-05-07T06:29:13;11.30;76.10
44121;DHT22;29783;52.504;13.478;2023-05-07T06:31:39;11.20;76.60
44121;DHT22;29783;52.504;13.478;2023-05-07T06:34:05;11.20;76.40
44121;DHT22;29783;52.504;13.478;2023-05-07T06:36:30;11.30;76.20
44121;DHT22;29783;52.504;13.478;2023-05-07T06:38:56;11.40;76.30
44121;DHT22;29783;52.504;13.478;2023-05-07T06:41:22;11.60;75.50
44121;DHT22;29783;52.504;13.478;2023-05-07T06:43:47;11.60;75.30
44121;DHT22;29783;52.504;13.478;2023-05-07T06:46:13;11.80;75.30
44121;DHT22;29783;52.504;13.478;2023-05-07T06:48:39;11.80;75.40
44121;DHT22;29783;52.504;13.478;2023-05-07T06:51:04;12.20;73.90
44121;DHT22;29783;52.504;13.478;2023-05-07T06:53:30;12.40;73.20
44121;DHT22;29783;52.504;13.478;2023-05-07T06:55:56;12.50;73.00
44121;DHT22;29783;52.504;13.478;2023-05-07T06:58:22;12.40;72.30
44121;DHT22;29783;52.504;13.478;2023-05-07T07:00:48;12.30;71.70
44121;DHT22;29783;52.504;13.478;2023-05-07T07:03:13;12.30;72.50
44121;DHT22;29783;52.504;13.478;2023-05-07T07:05:41;12.50;71.30
44121;DHT22;29783;52.504;13.478;2023-05-07T07:08:07;12.60;71.60
44121;DHT22;29783;52.504;13.478;2023-05-07T07:10:32;12.30;71.70
44121;DHT22;29783;52.504;13.478;2023-05-07T07:12:58;12.20;72.40
44121;DHT22;29783;52.504;13.478;2023-05-07T07:15:24;12.40;72.20
44121;DHT22;29783;52.504;13.478;2023-05-07T07:17:51;12.30;72.10
44121;DHT22;29783;52.504;13.478;2023-05-07T07:20:16;12.30;72.40
44121;DHT22;29783;52.504;13.478;2023-05-07T07:22:42;12.20;72.70
44121;DHT22;29783;52.504;13.478;2023-05-07T07:25:08;12.30;72.10
44121;DHT22;29783;52.504;13.478;2023-05-07T07:27:34;12.60;71.60
44121;DHT22;29783;52.504;13.478;2023-05-07T07:30:00;12.80;70.30
44121;DHT22;29783;52.504;13.478;2023-05-07T07:32:25;12.90;70.20
44121;DHT22;29783;52.504;13.478;2023-05-07T07:34:51;12.80;69.70
44121;DHT22;29783;52.504;13.478;2023-05-07T07:37:19;12.70;69.80
44121;DHT22;29783;52.504;13.478;2023-05-07T07:39:44;12.70;69.90
44121;DHT22;29783;52.504;13.478;2023-05-07T07:42:10;12.80;69.70
44121;DHT22;29783;52.504;13.478;2023-05-07T07:44:36;13.00;69.90
44121;DHT22;29783;52.504;13.478;2023-05-07T07:47:01;13.10;69.80
44121;DHT22;29783;52.504;13.478;2023-05-07T07:49:27;13.20;68.90
44121;DHT22;29783;52.504;13.478;2023-05-07T07:51:53;13.30;68.80
44121;DHT22;29783;52.504;13.478;2023-05-07T07:54:18;13.30;67.70
44121;DHT22;29783;52.504;13.478;2023-05-07T07:56:44;13.30;66.30
44121;DHT22;29783;52.504;13.478;2023-05-07T07:59:10;13.30;67.90
44121;DHT22;29783;52.504;13.478;2023-05-07T08:01:35;13.30;66.90
44121;DHT22;29783;52.504;13.478;2023-05-07T08:04:01;13.20;67.30
44121;DHT22;29783;52.504;13.478;2023-05-07T08:06:28;13.20;68.00
44121;DHT22;29783;52.504;13.478;2023-05-07T08:08:54;13.40;66.70
44121;DHT22;29783;52.504;13.478;2023-05-07T08:11:20;13.50;65.80
44121;DHT22;29783;52.504;13.478;2023-05-07T08:13:47;13.60;65.00
44121;DHT22;29783;52.504;13.478;2023-05-07T08:16:13;13.60;65.90
44121;DHT22;29783;52.504;13.478;2023-05-07T08:18:38;13.60;65.60
44121;DHT22;29783;52.504;13.478;2023-05-07T08:21:04;13.80;64.70
44121;DHT22;29783;52.504;13.478;2023-05-07T08:23:30;13.90;64.20
44121;DHT22;29783;52.504;13.478;2023-05-07T08:25:55;14.20;64.20
44121;DHT22;29783;52.504;13.478;2023-05-07T08:28:21;14.40;63.70
44121;DHT22;29783;52.504;13.478;2023-05-07T08:30:47;14.30;62.90
44121;DHT22;29783;52.504;13.478;2023-05-07T08:33:13;14.10;63.60
44121;DHT22;29783;52.504;13.478;2023-05-07T08:35:38;14.20;65.10
44121;DHT22;29783;52.504;13.478;2023-05-07T08:38:04;14.20;63.70
44121;DHT22;29783;52.504;13.478;2023-05-07T08:40:38;14.30;63.60
44121;DHT22;29783;52.504;13.478;2023-05-07T08:43:05;14.50;62.70
44121;DHT22;29783;52.504;13.478;2023-05-07T08:45:33;14.50;62.70
44121;DHT22;29783;52.504;13.478;2023-05-07T08:48:00;14.60;61.60
44121;DHT22;29783;52.504;13.478;2023-05-07T08:50:27;14.70;60.90
44121;DHT22;29783;52.504;13.478;2023-05-07T08:52:53;14.70;61.20
44121;DHT22;29783;52.504;13.478;2023-05-07T08:55:18;14.70;61.80
44121;DHT22;29783;52.504;13.478;2023-05-07T08:57:44;14.80;61.60
44121;DHT22;29783;52.504;13.478;2023-05-07T09:00:10;14.90;61.20
44121;DHT22;29783;52.504;13.478;2023-05-07T09:02:36;14.70;62.00
44121;DHT22;29783;52.504;13.478;2023-05-07T09:05:03;15.00;60.30
44121;DHT22;29783;52.504;13.478;2023-05-07T09:07:30;15.00;59.70
44121;DHT22;29783;52.504;13.478;2023-05-07T09:09:55;14.80;61.50
44121;DHT22;29783;52.504;13.478;2023-05-07T09:12:22;14.80;61.40
44121;DHT22;29783;52.504;13.478;2023-05-07T09:14:48;14.90;60.10
44121;DHT22;29783;52.504;13.478;2023-05-07T09:17:16;14.80;60.10
44121;DHT22;29783;52.504;13.478;2023-05-07T09:19:45;15.10;60.80
44121;DHT22;29783;52.504;13.478;2023-05-07T09:22:12;15.30;60.00
44121;DHT22;29783;52.504;13.478;2023-05-07T09:24:38;15.40;59.60
44121;DHT22;29783;52.504;13.478;2023-05-07T09:27:04;15.70;59.60
44121;DHT22;29783;52.504;13.478;2023-05-07T09:29:31;15.50;58.90
44121;DHT22;29783;52.504;13.478;2023-05-07T09:32:01;15.60;58.30
44121;DHT22;29783;52.504;13.478;2023-05-07T09:34:31;15.80;57.70
44121;DHT22;29783;52.504;13.478;2023-05-07T09:37:02;15.90;58.10
44121;DHT22;29783;52.504;13.478;2023-05-07T09:39:45;16.20;57.00
44121;DHT22;29783;52.504;13.478;2023-05-07T09:42:12;16.20;56.00
44121;DHT22;29783;52.504;13.478;2023-05-07T09:44:38;15.90;57.10
44121;DHT22;29783;52.504;13.478;2023-05-07T09:47:08;16.00;57.30
44121;DHT22;29783;52.504;13.478;2023-05-07T09:49:38;16.00;56.20
44121;DHT22;29783;52.504;13.478;2023-05-07T09:52:06;16.00;56.40
44121;DHT22;29783;52.504;13.478;2023-05-07T09:54:34;16.00;56.20
44121;DHT22;29783;52.504;13.478;2023-05-07T09:57:03;16.00;56.90
44121;DHT22;29783;52.504;13.478;2023-05-07T09:59:33;16.30;55.40
44121;DHT22;29783;52.504;13.478;2023-05-07T10:02:00;16.30;55.30
44121;DHT22;29783;52.504;13.478;2023-05-07T10:04:27;16.60;55.00
44121;DHT22;29783;52.504;13.478;2023-05-07T10:06:53;16.90;55.30
44121;DHT22;29783;52.504;13.478;2023-05-07T10:09:21;16.90;53.70
44121;DHT22;29783;52.504;13.478;2023-05-07T10:11:49;17.30;52.90
44121;DHT22;29783;52.504;13.478;2023-05-07T10:14:14;17.30;51.90
44121;DHT22;29783;52.504;13.478;2023-05-07T10:16:41;17.20;52.40
44121;DHT22;29783;52.504;13.478;2023-05-07T10:19:08;17.20;53.30
44121;DHT22;29783;52.504;13.478;2023-05-07T10:21:38;17.30;52.00
44121;DHT22;29783;52.504;13.478;2023-05-07T10:24:16;17.40;51.50
44121;DHT22;29783;52.504;13.478;2023-05-07T10:26:48;17.10;51.70
44121;DHT22;29783;52.504;13.478;2023-05-07T10:29:21;17.20;52.30
44121;DHT22;29783;52.504;13.478;2023-05-07T10:34:35;17.70;51.30
44121;DHT22;29783;52.504;13.478;2023-05-07T10:37:02;17.50;51.50
44121;DHT22;29783;52.504;13.478;2023-05-07T10:39:28;17.50;52.00
44121;DHT22;29783;52.504;13.478;2023-05-07T10:41:55;17.60;51.10
44121;DHT22;29783;52.504;13.478;2023-05-07T10:44:29;17.50;51.60
44121;DHT22;29783;52.504;13.478;2023-05-07T10:47:12;17.80;50.70
44121;DHT22;29783;52.504;13.478;2023-05-07T10:54:39;17.70;50.30
44121;DHT22;29783;52.504;13.478;2023-05-07T10:57:36;17.50;51.00
44121;DHT22;29783;52.504;13.478;2023-05-07T11:05:26;18.00;49.40
44121;DHT22;29783;52.504;13.478;2023-05-07T11:07:57;17.50;50.20
44121;DHT22;29783;52.504;13.478;2023-05-07T11:10:23;17.40;49.80
44121;DHT22;29783;52.504;13.478;2023-05-07T11:12:52;17.20;50.80
44121;DHT22;29783;52.504;13.478;2023-05-07T11:15:39;17.30;50.40
44121;DHT22;29783;52.504;13.478;2023-05-07T11:18:05;17.10;50.40
44121;DHT22;29783;52.504;13.478;2023-05-07T11:20:50;17.20;52.30
44121;DHT22;29783;52.504;13.478;2023-05-07T11:26:02;18.10;50.40
44121;DHT22;29783;52.504;13.478;2023-05-07T11:28:36;18.30;48.20
44121;DHT22;29783;52.504;13.478;2023-05-07T11:31:02;18.50;48.60
44121;DHT22;29783;52.504;13.478;2023-05-07T11:33:30;18.70;48.70
44121;DHT22;29783;52.504;13.478;2023-05-07T11:35:56;18.70;47.90
44121;DHT22;29783;52.504;13.478;2023-05-07T11:38:22;18.70;47.80
44121;DHT22;29783;52.504;13.478;2023-05-07T11:40:52;18.60;48.20
44121;DHT22;29783;52.504;13.478;2023-05-07T11:43:18;18.70;47.40
44121;DHT22;29783;52.504;13.478;2023-05-07T11:45:45;18.40;47.60
44121;DHT22;29783;52.504;13.478;2023-05-07T11:48:12;18.40;48.40
44121;DHT22;29783;52.504;13.478;2023-05-07T11:50:54;18.30;47.90
44121;DHT22;29783;52.504;13.478;2023-05-07T11:53:25;18.30;48.00
44121;DHT22;29783;52.504;13.478;2023-05-07T11:55:57;18.50;48.10
44121;DHT22;29783;52.504;13.478;2023-05-07T11:58:24;18.30;47.80
44121;DHT22;29783;52.504;13.478;2023-05-07T12:00:54;18.30;47.50
44121;DHT22;29783;52.504;13.478;2023-05-07T12:03:23;18.20;48.00
44121;DHT22;29783;52.504;13.478;2023-05-07T12:05:49;18.50;47.80
44121;DHT22;29783;52.504;13.478;2023-05-07T12:08:18;18.70;47.00
44121;DHT22;29783;52.504;13.478;2023-05-07T12:10:45;19.30;46.40
44121;DHT22;29783;52.504;13.478;2023-05-07T12:13:15;20.50;43.70
44121;DHT22;29783;52.504;13.478;2023-05-07T12:15:42;20.80;43.00
44121;DHT22;29783;52.504;13.478;2023-05-07T12:18:08;20.70;42.70
44121;DHT22;29783;52.504;13.478;2023-05-07T12:20:36;20.20;43.00
44121;DHT22;29783;52.504;13.478;2023-05-07T12:23:03;20.00;43.40
44121;DHT22;29783;52.504;13.478;2023-05-07T12:25:36;19.40;45.00
44121;DHT22;29783;52.504;13.478;2023-05-07T12:28:03;19.80;43.50
44121;DHT22;29783;52.504;13.478;2023-05-07T12:30:31;21.20;40.60
44121;DHT22;29783;52.504;13.478;2023-05-07T12:32:59;21.90;38.90
44121;DHT22;29783;52.504;13.478;2023-05-07T12:35:29;22.60;38.50
44121;DHT22;29783;52.504;13.478;2023-05-07T12:37:56;24.00;36.50
44121;DHT22;29783;52.504;13.478;2023-05-07T12:40:22;25.20;34.10
44121;DHT22;29783;52.504;13.478;2023-05-07T12:42:52;25.70;33.30
44121;DHT22;29783;52.504;13.478;2023-05-07T12:45:20;25.20;33.70
44121;DHT22;29783;52.504;13.478;2023-05-07T12:47:46;25.20;33.50
44121;DHT22;29783;52.504;13.478;2023-05-07T12:50:13;24.10;35.20
44121;DHT22;29783;52.504;13.478;2023-05-07T12:52:40;23.30;36.50
44121;DHT22;29783;52.504;13.478;2023-05-07T12:55:07;22.70;37.30
44121;DHT22;29783;52.504;13.478;2023-05-07T12:57:40;22.50;37.10
44121;DHT22;29783;52.504;13.478;2023-05-07T13:00:06;23.20;36.80
44121;DHT22;29783;52.504;13.478;2023-05-07T13:02:33;23.20;35.40
44121;DHT22;29783;52.504;13.478;2023-05-07T13:05:00;23.00;36.50
44121;DHT22;29783;52.504;13.478;2023-05-07T13:07:25;22.60;36.60
44121;DHT22;29783;52.504;13.478;2023-05-07T13:09:52;23.00;35.20
44121;DHT22;29783;52.504;13.478;2023-05-07T13:12:18;23.20;34.70
44121;DHT22;29783;52.504;13.478;2023-05-07T13:14:43;24.30;34.90
44121;DHT22;29783;52.504;13.478;2023-05-07T13:17:09;24.30;33.80
44121;DHT22;29783;52.504;13.478;2023-05-07T13:19:34;23.70;34.30
44121;DHT22;29783;52.504;13.478;2023-05-07T13:22:03;22.70;36.00
44121;DHT22;29783;52.504;13.478;2023-05-07T13:24:28;22.20;37.50
44121;DHT22;29783;52.504;13.478;2023-05-07T13:26:54;23.50;36.00
44121;DHT22;29783;52.504;13.478;2023-05-07T13:29:20;24.60;34.40
44121;DHT22;29783;52.504;13.478;2023-05-07T13:31:50;24.30;34.20
44121;DHT22;29783;52.504;13.478;2023-05-07T13:34:16;23.40;36.00
44121;DHT22;29783;52.504;13.478;2023-05-07T13:36:41;22.30;37.40
44121;DHT22;29783;52.504;13.478;2023-05-07T13:39:09;22.00;38.30
44121;DHT22;29783;52.504;13.478;2023-05-07T13:41:36;22.30;37.20
44121;DHT22;29783;52.504;13.478;2023-05-07T13:44:03;22.20;38.20
44121;DHT22;29783;52.504;13.478;2023-05-07T13:46:30;22.70;37.40
44121;DHT22;29783;52.504;13.478;2023-05-07T13:48:56;22.90;35.90
44121;DHT22;29783;52.504;13.478;2023-05-07T13:51:22;22.60;37.10
44121;DHT22;29783;52.504;13.478;2023-05-07T13:53:48;23.30;36.10
44121;DHT22;29783;52.504;13.478;2023-05-07T13:56:14;25.00;32.90
44121;DHT22;29783;52.504;13.478;2023-05-07T13:58:40;24.00;34.10
44121;DHT22;29783;52.504;13.478;2023-05-07T14:01:06;22.70;36.80
44121;DHT22;29783;52.504;13.478;2023-05-07T14:03:35;21.90;39.30
44121;DHT22;29783;52.504;13.478;2023-05-07T14:06:03;21.20;40.10
44121;DHT22;29783;52.504;13.478;2023-05-07T14:08:30;22.00;38.70
44121;DHT22;29783;52.504;13.478;2023-05-07T14:10:56;22.40;37.90
44121;DHT22;29783;52.504;13.478;2023-05-07T14:13:21;22.30;37.20
44121;DHT22;29783;52.504;13.478;2023-05-07T14:15:47;21.70;37.90
44121;DHT22;29783;52.504;13.478;2023-05-07T14:18:14;21.50;38.50
44121;DHT22;29783;52.504;13.478;2023-05-07T14:20:40;21.00;39.30
44121;DHT22;29783;52.504;13.478;2023-05-07T14:23:06;20.20;41.30
44121;DHT22;29783;52.504;13.478;2023-05-07T14:25:32;19.60;41.90
44121;DHT22;29783;52.504;13.478;2023-05-07T14:27:57;19.40;42.60
44121;DHT22;29783;52.504;13.478;2023-05-07T14:30:23;19.30;42.60
44121;DHT22;29783;52.504;13.478;2023-05-07T14:32:50;19.20;42.70
44121;DHT22;29783;52.504;13.478;2023-05-07T14:35:15;19.30;42.10
44121;DHT22;29783;52.504;13.478;2023-05-07T14:37:42;18.90;42.60
44121;DHT22;29783;52.504;13.478;2023-05-07T14:40:08;18.50;44.20
44121;DHT22;29783;52.504;13.478;2023-05-07T14:42:34;18.40;44.30
44121;DHT22;29783;52.504;13.478;2023-05-07T15:05:37;23.90;34.10
44121;DHT22;29783;52.504;13.478;2023-05-07T15:08:03;23.00;36.00
44121;DHT22;29783;52.504;13.478;2023-05-07T15:10:29;22.00;37.50
44121;DHT22;29783;52.504;13.478;2023-05-07T15:12:54;21.20;39.10
44121;DHT22;29783;52.504;13.478;2023-05-07T15:15:20;20.80;40.20
44121;DHT22;29783;52.504;13.478;2023-05-07T15:17:46;20.20;41.30
44121;DHT22;29783;52.504;13.478;2023-05-07T15:20:11;20.10;41.50
44121;DHT22;29783;52.504;13.478;2023-05-07T15:22:37;20.20;41.80
44121;DHT22;29783;52.504;13.478;2023-05-07T15:25:03;20.60;41.20
44121;DHT22;29783;52.504;13.478;2023-05-07T15:27:30;20.70;40.10
44121;DHT22;29783;52.504;13.478;2023-05-07T15:29:56;21.10;39.60
44121;DHT22;29783;52.504;13.478;2023-05-07T15:32:22;21.20;39.70
44121;DHT22;29783;52.504;13.478;2023-05-07T15:34:48;21.50;39.80
44121;DHT22;29783;52.504;13.478;2023-05-07T15:37:13;22.90;37.10
44121;DHT22;29783;52.504;13.478;2023-05-07T15:39:39;22.40;35.70
44121;DHT22;29783;52.504;13.478;2023-05-07T15:42:05;21.20;37.80
44121;DHT22;29783;52.504;13.478;2023-05-07T15:44:30;20.50;39.80
44121;DHT22;29783;52.504;13.478;2023-05-07T15:47:00;19.70;41.20
44121;DHT22;29783;52.504;13.478;2023-05-07T15:49:26;21.20;39.50
44121;DHT22;29783;52.504;13.478;2023-05-07T15:51:52;23.10;35.80
44121;DHT22;29783;52.504;13.478;2023-05-07T15:54:20;24.30;33.30
44121;DHT22;29783;52.504;13.478;2023-05-07T15:56:46;25.00;31.80
44121;DHT22;29783;52.504;13.478;2023-05-07T15:59:12;25.40;31.30
44121;DHT22;29783;52.504;13.478;2023-05-07T16:01:40;25.60;31.00
44121;DHT22;29783;52.504;13.478;2023-05-07T16:04:07;25.60;30.90